createdAt,value
2024-04-19T00:02:24.799Z,48.72
2024-04-19T00:07:27.308Z,48.92
2024-04-19T00:12:29.155Z,48.94
2024-04-19T00:17:31.041Z,48.96
2024-04-19T00:22:32.751Z,49.66
2024-04-19T00:27:34.943Z,49.25
2024-04-19T00:32:37.081Z,49.57
2024-04-19T00:37:38.865Z,50.14
2024-04-19T00:42:40.727Z,50.08
2024-04-19T00:47:42.912Z,50.71
2024-04-19T00:52:44.705Z,50.49
2024-04-19T00:57:46.838Z,50.59
2024-04-19T01:02:49.707Z,50.90
2024-04-19T01:07:52.739Z,51.22
2024-04-19T01:12:54.704Z,51.41
2024-04-19T01:17:56.688Z,51.62
2024-04-19T01:22:59.468Z,51.40
2024-04-19T01:28:02.694Z,51.63
2024-04-19T01:33:04.945Z,51.65
2024-04-19T01:38:07.386Z,51.43
2024-04-19T01:43:09.616Z,51.85
2024-04-19T01:48:11.895Z,51.98
2024-04-19T01:53:13.508Z,51.89
2024-04-19T01:58:15.273Z,52.07
2024-04-19T02:03:17.962Z,52.11
2024-04-19T02:08:19.574Z,52.68
2024-04-19T02:13:21.251Z,52.63
2024-04-19T02:18:23.142Z,52.83
2024-04-19T02:23:37.006Z,53.00
2024-04-19T02:29:00.040Z,53.59
2024-04-19T02:34:01.734Z,53.16
2024-04-19T02:39:03.384Z,53.28
2024-04-19T02:44:05.102Z,53.40
2024-04-19T02:49:06.652Z,53.66
2024-04-19T02:54:08.318Z,53.95
2024-04-19T02:59:09.930Z,54.08
2024-04-19T03:04:11.950Z,54.82
2024-04-19T03:09:13.673Z,55.89
2024-04-19T03:14:15.346Z,56.08
2024-04-19T03:19:17.207Z,56.19
2024-04-19T03:24:18.818Z,56.12
2024-04-19T03:29:20.376Z,56.89
2024-04-19T03:34:22.416Z,57.40
2024-04-19T03:39:24.067Z,57.17
2024-04-19T03:44:44.190Z,57.21
2024-04-19T03:49:45.819Z,57.34
2024-04-19T03:54:47.468Z,57.58
2024-04-19T03:59:49.068Z,58.25
2024-04-19T04:04:50.708Z,58.55
2024-04-19T04:09:53.010Z,59.28
2024-04-19T04:14:55.350Z,59.95
2024-04-19T04:19:57.002Z,60.39
2024-04-19T04:24:58.510Z,61.79
2024-04-19T04:30:00.147Z,62.02
2024-04-19T04:35:01.717Z,61.75
2024-04-19T04:40:03.521Z,61.74
2024-04-19T04:45:05.415Z,61.55
2024-04-19T04:50:07.320Z,62.09
2024-04-19T04:55:09.951Z,61.95
2024-04-19T05:00:12.106Z,61.74
2024-04-19T05:05:14.969Z,62.86
2024-04-19T05:10:18.253Z,63.42
2024-04-19T05:15:20.175Z,63.04
2024-04-19T05:20:22.516Z,63.70
2024-04-19T05:25:24.216Z,63.70
2024-04-19T05:30:28.791Z,63.94
2024-04-19T05:35:30.414Z,64.29
2024-04-19T05:40:31.991Z,63.64
2024-04-19T05:45:33.602Z,63.41
2024-04-19T05:50:35.223Z,63.43
2024-04-19T05:55:36.831Z,63.83
2024-04-19T06:00:38.488Z,63.60
2024-04-19T06:05:40.139Z,63.36
2024-04-19T06:10:42.021Z,63.13
2024-04-19T06:15:44.287Z,63.33
2024-04-19T06:20:45.913Z,63.28
2024-04-19T06:25:48.163Z,63.42
2024-04-19T06:30:49.816Z,63.47
2024-04-19T06:35:51.448Z,63.68
2024-04-19T06:40:53.003Z,63.98
2024-04-19T06:45:58.237Z,64.35
2024-04-19T06:51:00.050Z,64.09
2024-04-19T06:56:01.848Z,64.50
2024-04-19T07:01:16.336Z,65.49
2024-04-19T07:06:27.526Z,65.79
2024-04-19T07:11:36.920Z,66.66
2024-04-19T07:16:39.424Z,67.43
2024-04-19T07:21:41.940Z,67.40
2024-04-19T07:26:44.990Z,68.00
2024-04-19T07:31:46.920Z,67.81
2024-04-19T07:36:48.789Z,68.15
2024-04-19T07:41:50.552Z,67.95
2024-04-19T07:46:52.322Z,67.88
2024-04-19T07:51:54.767Z,68.19
2024-04-19T07:56:56.687Z,68.57
2024-04-19T08:01:59.508Z,68.36
2024-04-19T08:07:01.405Z,67.94
2024-04-19T08:12:05.204Z,68.11
2024-04-19T08:17:08.304Z,68.44
2024-04-19T08:22:11.670Z,68.88
2024-04-19T08:27:13.601Z,68.83
2024-04-19T08:32:16.303Z,69.53
2024-04-19T08:37:18.137Z,69.98
2024-04-19T08:42:22.692Z,70.65
2024-04-19T08:47:33.218Z,71.07
2024-04-19T08:52:58.371Z,71.41
2024-04-19T08:58:02.268Z,71.42
2024-04-19T09:03:05.802Z,71.72
2024-04-19T09:08:08.568Z,71.87
2024-04-19T09:13:10.442Z,72.38
2024-04-19T09:18:12.137Z,72.42
2024-04-19T09:23:13.689Z,72.16
2024-04-19T09:28:17.097Z,72.40
2024-04-19T09:33:24.427Z,72.60
2024-04-19T09:38:27.281Z,73.37
2024-04-19T09:43:34.310Z,73.30
2024-04-19T09:48:41.472Z,73.53
2024-04-19T09:53:46.023Z,73.84
2024-04-19T09:58:48.906Z,74.18
2024-04-19T10:03:52.237Z,74.67
2024-04-19T10:08:56.789Z,74.69
2024-04-19T10:13:58.481Z,74.46
2024-04-19T10:19:01.324Z,74.42
2024-04-19T10:24:21.258Z,74.58
2024-04-19T10:29:23.769Z,74.12
2024-04-19T10:34:25.474Z,74.43
2024-04-19T10:39:27.181Z,74.02
2024-04-19T10:44:32.185Z,74.24
2024-04-19T10:49:33.951Z,73.92
2024-04-19T10:54:37.047Z,74.12
2024-04-19T10:59:38.610Z,73.75
2024-04-19T11:04:40.941Z,73.98
2024-04-19T11:09:42.959Z,73.56
2024-04-19T11:14:44.619Z,73.25
2024-04-19T11:19:47.931Z,73.78
2024-04-19T11:24:54.634Z,73.29
2024-04-19T11:29:59.120Z,73.15
2024-04-19T11:35:09.337Z,73.08
2024-04-19T11:40:22.301Z,73.52
2024-04-19T11:45:25.568Z,72.87
2024-04-19T11:50:28.094Z,73.30
2024-04-19T11:55:29.844Z,73.57
2024-04-19T12:00:31.558Z,74.07
2024-04-19T12:05:33.864Z,74.14
2024-04-19T12:10:35.736Z,73.64
2024-04-19T12:16:16.241Z,73.74
2024-04-19T12:20:59.483Z,73.31
2024-04-19T12:26:02.832Z,73.59
2024-04-19T12:31:05.001Z,73.60
2024-04-19T12:36:11.972Z,73.32
2024-04-19T12:41:17.198Z,73.70
2024-04-19T12:46:19.545Z,74.42
2024-04-19T12:51:25.216Z,73.93
2024-04-19T12:56:27.385Z,74.22
2024-04-19T13:01:29.193Z,74.50
2024-04-19T13:06:32.187Z,75.17
2024-04-19T13:11:34.084Z,75.99
2024-04-19T13:16:36.116Z,76.27
2024-04-19T13:21:37.831Z,76.16
2024-04-19T13:26:39.543Z,77.03
2024-04-19T13:31:41.339Z,77.24
2024-04-19T13:36:43.428Z,76.94
2024-04-19T13:41:45.582Z,78.39
2024-04-19T13:46:47.992Z,78.03
2024-04-19T13:51:50.521Z,78.38
2024-04-19T13:56:52.867Z,78.56
2024-04-19T14:01:57.094Z,79.05
2024-04-19T14:07:02.467Z,78.93
2024-04-19T14:12:06.356Z,79.46
2024-04-19T14:17:16.073Z,79.27
2024-04-19T14:22:18.066Z,78.65
2024-04-19T14:27:19.783Z,78.98
2024-04-19T14:32:21.509Z,78.98
2024-04-19T14:37:23.268Z,79.03
2024-04-19T14:42:27.844Z,78.80
2024-04-19T14:47:30.260Z,78.48
2024-04-19T14:52:31.960Z,77.91
2024-04-19T14:57:34.125Z,77.87
2024-04-19T15:02:35.913Z,78.10
2024-04-19T15:07:41.168Z,78.04
2024-04-19T15:12:42.874Z,77.74
2024-04-19T15:17:44.762Z,77.98
2024-04-19T15:22:46.328Z,77.65
2024-04-19T15:27:47.884Z,78.20
2024-04-19T15:32:49.516Z,77.64
2024-04-19T15:37:51.088Z,77.27
2024-04-19T15:42:52.700Z,76.14
2024-04-19T15:47:54.585Z,75.04
2024-04-19T15:52:56.215Z,74.87
2024-04-19T15:57:59.710Z,74.67
2024-04-19T16:03:01.344Z,73.34
2024-04-19T16:08:03.150Z,72.30
2024-04-19T16:13:05.123Z,72.06
2024-04-19T16:18:06.943Z,71.17
2024-04-19T16:23:08.738Z,69.22
2024-04-19T16:28:10.577Z,67.93
2024-04-19T16:33:13.334Z,66.81
2024-04-19T16:38:15.852Z,66.00
2024-04-19T16:43:17.885Z,65.57
2024-04-19T16:48:23.347Z,65.30
2024-04-19T16:53:32.295Z,64.40
2024-04-19T16:58:34.099Z,63.28
2024-04-19T17:03:35.867Z,62.69
2024-04-19T17:08:38.055Z,61.51
2024-04-19T17:13:40.211Z,60.08
2024-04-19T17:18:42.215Z,59.40
2024-04-19T17:23:43.877Z,58.42
2024-04-19T17:28:45.693Z,59.04
2024-04-19T17:33:47.295Z,59.91
2024-04-19T17:38:48.967Z,60.19
2024-04-19T17:43:50.687Z,60.84
2024-04-19T17:48:52.277Z,61.06
2024-04-19T17:53:53.899Z,62.17
2024-04-19T17:58:55.732Z,63.09
2024-04-19T18:03:57.356Z,65.49
2024-04-19T18:08:58.927Z,65.85
2024-04-19T18:14:00.463Z,65.13
2024-04-19T18:19:04.606Z,63.94
2024-04-19T18:24:09.798Z,63.98
2024-04-19T18:29:12.031Z,63.31
2024-04-19T18:34:17.167Z,63.22
2024-04-19T18:39:18.881Z,63.55
2024-04-19T18:44:20.473Z,63.13
2024-04-19T18:49:22.211Z,63.08
2024-04-19T18:54:23.761Z,63.55
2024-04-19T18:59:28.146Z,63.81
2024-04-19T19:04:31.943Z,63.75
2024-04-19T19:09:34.144Z,63.98
2024-04-19T19:14:36.658Z,64.31
2024-04-19T19:19:38.738Z,64.75
2024-04-19T19:24:40.330Z,64.44
2024-04-19T19:29:41.912Z,64.68
2024-04-19T19:34:43.427Z,64.74
2024-04-19T19:39:45.072Z,64.52
2024-04-19T19:44:49.611Z,64.30
2024-04-19T19:49:59.155Z,64.64
2024-04-19T19:55:02.377Z,64.36
2024-04-19T20:00:23.361Z,64.70
2024-04-19T20:05:43.609Z,64.53
2024-04-19T20:10:45.333Z,63.72
2024-04-19T20:15:48.603Z,63.71
2024-04-19T20:20:50.773Z,63.68
2024-04-19T20:25:52.342Z,64.12
2024-04-19T20:30:54.092Z,63.70
2024-04-19T20:35:55.679Z,63.81
2024-04-19T20:40:58.207Z,64.28
2024-04-19T20:46:00.474Z,64.87
2024-04-19T20:51:02.090Z,65.45
2024-04-19T20:56:04.107Z,65.05
2024-04-19T21:01:12.176Z,64.53
2024-04-19T21:06:16.665Z,64.24
2024-04-19T21:11:18.322Z,64.42
2024-04-19T21:16:20.193Z,64.21
2024-04-19T21:21:21.735Z,63.91
2024-04-19T21:26:23.845Z,63.94
2024-04-19T21:31:25.575Z,63.71
2024-04-19T21:36:30.677Z,63.54
2024-04-19T21:41:32.301Z,63.90
2024-04-19T21:46:34.137Z,63.50
2024-04-19T21:51:35.819Z,63.47
2024-04-19T21:56:37.532Z,63.87
2024-04-19T22:01:39.834Z,63.30
2024-04-19T22:06:41.415Z,63.24
2024-04-19T22:11:43.481Z,63.12
2024-04-19T22:16:45.066Z,63.12
2024-04-19T22:21:48.148Z,63.41
2024-04-19T22:26:52.552Z,62.94
2024-04-19T22:31:55.476Z,62.71
2024-04-19T22:36:57.684Z,62.99
2024-04-19T22:41:59.532Z,62.87
2024-04-19T22:47:01.035Z,63.51
2024-04-19T22:52:02.563Z,64.66
2024-04-19T22:57:04.309Z,64.67
2024-04-19T23:02:05.860Z,64.83
2024-04-19T23:07:07.363Z,65.00
2024-04-19T23:12:08.909Z,65.54
2024-04-19T23:17:10.443Z,65.60
2024-04-19T23:22:12.387Z,65.20
2024-04-19T23:27:13.879Z,65.56
2024-04-19T23:32:15.630Z,64.91
2024-04-19T23:37:17.286Z,64.53
2024-04-19T23:42:18.789Z,64.86
2024-04-19T23:47:20.400Z,64.62
2024-04-19T23:52:21.931Z,64.87
2024-04-19T23:57:23.430Z,64.66
